sensor_id;sensor_type;location;lat;lon;timestamp;temperature;humidity
13375;DHT22;6756;51.354;15.754;2022-10-26T00:01:05;8.40;99.90
13375;DHT22;6756;51.354;15.754;2022-10-26T00:05:06;8.30;99.90
13375;DHT22;6756;51.354;15.754;2022-10-26T00:09:07;8.20;99.90
13375;DHT22;6756;51.354;15.754;2022-10-26T00:13:10;8.20;99.90
13375;DHT22;6756;51.354;15.754;2022-10-26T00:17:11;8.10;99.90
13375;DHT22;6756;51.354;15.754;2022-10-26T00:21:12;8.10;99.90
13375;DHT22;6756;51.354;15.754;2022-10-26T00:25:13;8.00;99.90
13375;DHT22;6756;51.354;15.754;2022-10-26T00:29:14;7.90;99.90
13375;DHT22;6756;51.354;15.754;2022-10-26T00:33:15;7.90;99.90
13375;DHT22;6756;51.354;15.754;2022-10-26T00:37:15;7.90;99.90
13375;DHT22;6756;51.354;15.754;2022-10-26T00:41:18;7.90;99.90
13375;DHT22;6756;51.354;15.754;2022-10-26T00:45:20;7.90;99.90
13375;DHT22;6756;51.354;15.754;2022-10-26T00:49:28;7.90;99.90
13375;DHT22;6756;51.354;15.754;2022-10-26T00:53:31;7.90;99.90
13375;DHT22;6756;51.354;15.754;2022-10-26T00:57:34;8.00;99.90
13375;DHT22;6756;51.354;15.754;2022-10-26T01:01:38;7.90;99.90
13375;DHT22;6756;51.354;15.754;2022-10-26T01:05:41;7.80;99.90
13375;DHT22;6756;51.354;15.754;2022-10-26T01:09:43;7.60;99.90
13375;DHT22;6756;51.354;15.754;2022-10-26T01:13:45;7.50;99.90
13375;DHT22;6756;51.354;15.754;2022-10-26T01:18:00;7.40;99.90
13375;DHT22;6756;51.354;15.754;2022-10-26T01:22:18;7.40;99.90
13375;DHT22;6756;51.354;15.754;2022-10-26T01:30:37;7.30;99.90
13375;DHT22;6756;51.354;15.754;2022-10-26T01:39:15;7.10;99.90
13375;DHT22;6756;51.354;15.754;2022-10-26T01:43:18;7.00;99.90
13375;DHT22;6756;51.354;15.754;2022-10-26T01:47:20;6.90;99.90
13375;DHT22;6756;51.354;15.754;2022-10-26T01:51:24;6.90;99.90
13375;DHT22;6756;51.354;15.754;2022-10-26T02:16:45;6.60;99.90
13375;DHT22;6756;51.354;15.754;2022-10-26T02:20:50;6.50;99.90
13375;DHT22;6756;51.354;15.754;2022-10-26T02:24:54;6.60;99.90
13375;DHT22;6756;51.354;15.754;2022-10-26T02:29:00;6.60;99.90
13375;DHT22;6756;51.354;15.754;2022-10-26T02:33:03;6.60;99.90
13375;DHT22;6756;51.354;15.754;2022-10-26T02:37:06;6.60;99.90
13375;DHT22;6756;51.354;15.754;2022-10-26T02:41:08;6.60;99.90
13375;DHT22;6756;51.354;15.754;2022-10-26T02:45:15;6.50;99.90
13375;DHT22;6756;51.354;15.754;2022-10-26T02:49:17;6.40;99.90
13375;DHT22;6756;51.354;15.754;2022-10-26T02:57:53;6.10;99.90
13375;DHT22;6756;51.354;15.754;2022-10-26T03:01:56;6.10;99.90
13375;DHT22;6756;51.354;15.754;2022-10-26T03:05:57;6.00;99.90
13375;DHT22;6756;51.354;15.754;2022-10-26T03:09:58;5.90;99.90
13375;DHT22;6756;51.354;15.754;2022-10-26T03:13:59;5.80;99.90
13375;DHT22;6756;51.354;15.754;2022-10-26T03:18:00;5.70;99.90
13375;DHT22;6756;51.354;15.754;2022-10-26T03:22:01;5.50;99.90
13375;DHT22;6756;51.354;15.754;2022-10-26T03:26:01;5.50;99.90
13375;DHT22;6756;51.354;15.754;2022-10-26T03:30:03;5.40;99.90
13375;DHT22;6756;51.354;15.754;2022-10-26T03:34:04;5.30;99.90
13375;DHT22;6756;51.354;15.754;2022-10-26T03:38:05;5.20;99.90
13375;DHT22;6756;51.354;15.754;2022-10-26T03:42:06;5.20;99.90
13375;DHT22;6756;51.354;15.754;2022-10-26T03:46:07;5.10;99.90
13375;DHT22;6756;51.354;15.754;2022-10-26T03:50:08;5.00;99.90
13375;DHT22;6756;51.354;15.754;2022-10-26T03:54:09;5.00;99.90
13375;DHT22;6756;51.354;15.754;2022-10-26T03:58:10;4.90;99.90
13375;DHT22;6756;51.354;15.754;2022-10-26T04:02:10;4.80;99.90
13375;DHT22;6756;51.354;15.754;2022-10-26T04:06:11;4.80;99.90
13375;DHT22;6756;51.354;15.754;2022-10-26T04:10:12;4.90;99.90
13375;DHT22;6756;51.354;15.754;2022-10-26T04:14:13;4.90;99.90
13375;DHT22;6756;51.354;15.754;2022-10-26T04:18:14;5.00;99.90
13375;DHT22;6756;51.354;15.754;2022-10-26T04:22:15;5.00;99.90
13375;DHT22;6756;51.354;15.754;2022-10-26T04:26:16;5.00;99.90
13375;DHT22;6756;51.354;15.754;2022-10-26T04:30:17;5.00;99.90
13375;DHT22;6756;51.354;15.754;2022-10-26T04:34:17;5.00;99.90
13375;DHT22;6756;51.354;15.754;2022-10-26T04:38:18;5.00;99.90
13375;DHT22;6756;51.354;15.754;2022-10-26T04:42:19;5.00;99.90
13375;DHT22;6756;51.354;15.754;2022-10-26T04:46:20;5.00;99.90
13375;DHT22;6756;51.354;15.754;2022-10-26T04:50:20;5.10;99.90
13375;DHT22;6756;51.354;15.754;2022-10-26T04:54:21;5.10;99.90
13375;DHT22;6756;51.354;15.754;2022-10-26T04:58:22;5.00;99.90
13375;DHT22;6756;51.354;15.754;2022-10-26T05:02:23;4.90;99.90
13375;DHT22;6756;51.354;15.754;2022-10-26T05:06:24;4.80;99.90
13375;DHT22;6756;51.354;15.754;2022-10-26T05:10:25;4.70;99.90
13375;DHT22;6756;51.354;15.754;2022-10-26T05:14:26;4.70;99.90
13375;DHT22;6756;51.354;15.754;2022-10-26T05:18:27;4.60;99.90
13375;DHT22;6756;51.354;15.754;2022-10-26T05:22:27;4.60;99.90
13375;DHT22;6756;51.354;15.754;2022-10-26T05:26:28;4.60;99.90
13375;DHT22;6756;51.354;15.754;2022-10-26T05:30:30;4.50;99.90
13375;DHT22;6756;51.354;15.754;2022-10-26T05:34:31;4.40;99.90
13375;DHT22;6756;51.354;15.754;2022-10-26T05:38:32;4.40;99.90
13375;DHT22;6756;51.354;15.754;2022-10-26T05:42:33;4.30;99.90
13375;DHT22;6756;51.354;15.754;2022-10-26T05:46:33;4.20;99.90
13375;DHT22;6756;51.354;15.754;2022-10-26T05:50:34;4.20;99.90
13375;DHT22;6756;51.354;15.754;2022-10-26T05:54:36;4.10;99.90
13375;DHT22;6756;51.354;15.754;2022-10-26T05:58:40;4.10;99.90
13375;DHT22;6756;51.354;15.754;2022-10-26T06:07:01;4.00;99.90
13375;DHT22;6756;51.354;15.754;2022-10-26T06:11:02;4.10;99.90
13375;DHT22;6756;51.354;15.754;2022-10-26T06:15:04;4.10;99.90
13375;DHT22;6756;51.354;15.754;2022-10-26T06:19:30;4.20;99.90
13375;DHT22;6756;51.354;15.754;2022-10-26T06:23:48;4.20;99.90
13375;DHT22;6756;51.354;15.754;2022-10-26T06:31:56;4.40;99.90
13375;DHT22;6756;51.354;15.754;2022-10-26T06:40:17;4.70;99.90
13375;DHT22;6756;51.354;15.754;2022-10-26T06:44:21;4.80;99.90
13375;DHT22;6756;51.354;15.754;2022-10-26T06:48:24;4.90;99.90
13375;DHT22;6756;51.354;15.754;2022-10-26T06:56:28;5.20;99.90
13375;DHT22;6756;51.354;15.754;2022-10-26T07:00:29;5.30;99.90
13375;DHT22;6756;51.354;15.754;2022-10-26T07:04:31;5.40;99.90
13375;DHT22;6756;51.354;15.754;2022-10-26T07:08:31;5.60;99.90
13375;DHT22;6756;51.354;15.754;2022-10-26T07:12:35;5.80;99.90
13375;DHT22;6756;51.354;15.754;2022-10-26T07:16:36;6.10;99.90
13375;DHT22;6756;51.354;15.754;2022-10-26T07:20:39;6.40;99.90
13375;DHT22;6756;51.354;15.754;2022-10-26T07:24:40;6.60;99.90
13375;DHT22;6756;51.354;15.754;2022-10-26T07:28:40;6.90;99.90
13375;DHT22;6756;51.354;15.754;2022-10-26T07:32:42;7.10;99.90
13375;DHT22;6756;51.354;15.754;2022-10-26T07:36:43;7.30;99.90
13375;DHT22;6756;51.354;15.754;2022-10-26T07:40:43;7.50;99.90
13375;DHT22;6756;51.354;15.754;2022-10-26T07:44:44;7.80;99.90
13375;DHT22;6756;51.354;15.754;2022-10-26T07:48:45;8.20;99.90
13375;DHT22;6756;51.354;15.754;2022-10-26T07:52:46;8.60;99.90
13375;DHT22;6756;51.354;15.754;2022-10-26T07:56:50;9.00;99.90
13375;DHT22;6756;51.354;15.754;2022-10-26T08:00:52;9.40;99.90
13375;DHT22;6756;51.354;15.754;2022-10-26T08:04:53;9.80;99.90
13375;DHT22;6756;51.354;15.754;2022-10-26T08:08:53;10.10;99.90
13375;DHT22;6756;51.354;15.754;2022-10-26T08:12:54;10.40;99.90
13375;DHT22;6756;51.354;15.754;2022-10-26T08:16:58;10.70;99.90
13375;DHT22;6756;51.354;15.754;2022-10-26T08:21:08;10.90;99.90
13375;DHT22;6756;51.354;15.754;2022-10-26T08:25:09;11.20;99.90
13375;DHT22;6756;51.354;15.754;2022-10-26T08:29:10;11.50;99.90
13375;DHT22;6756;51.354;15.754;2022-10-26T08:33:11;11.70;99.90
13375;DHT22;6756;51.354;15.754;2022-10-26T08:37:11;12.00;99.90
13375;DHT22;6756;51.354;15.754;2022-10-26T08:41:12;12.20;99.90
13375;DHT22;6756;51.354;15.754;2022-10-26T08:45:24;12.40;99.90
13375;DHT22;6756;51.354;15.754;2022-10-26T08:58:15;13.00;99.90
13375;DHT22;6756;51.354;15.754;2022-10-26T09:02:16;13.20;99.90
13375;DHT22;6756;51.354;15.754;2022-10-26T09:10:38;13.70;99.90
13375;DHT22;6756;51.354;15.754;2022-10-26T09:19:18;14.20;99.90
13375;DHT22;6756;51.354;15.754;2022-10-26T09:27:33;14.70;99.90
13375;DHT22;6756;51.354;15.754;2022-10-26T09:31:41;14.90;99.90
13375;DHT22;6756;51.354;15.754;2022-10-26T09:36:21;15.10;99.90
13375;DHT22;6756;51.354;15.754;2022-10-26T09:44:46;15.40;1.00
13375;DHT22;6756;51.354;15.754;2022-10-26T09:48:54;15.60;1.00
13375;DHT22;6756;51.354;15.754;2022-10-26T09:52:55;15.80;99.90
13375;DHT22;6756;51.354;15.754;2022-10-26T09:56:58;15.90;1.00
13375;DHT22;6756;51.354;15.754;2022-10-26T10:01:01;16.00;1.00
13375;DHT22;6756;51.354;15.754;2022-10-26T10:05:21;16.10;1.00
13375;DHT22;6756;51.354;15.754;2022-10-26T10:09:23;16.30;99.90
13375;DHT22;6756;51.354;15.754;2022-10-26T10:13:29;16.40;1.00
13375;DHT22;6756;51.354;15.754;2022-10-26T10:17:31;16.60;99.90
13375;DHT22;6756;51.354;15.754;2022-10-26T10:21:37;16.70;99.90
13375;DHT22;6756;51.354;15.754;2022-10-26T10:25:38;16.80;99.90
13375;DHT22;6756;51.354;15.754;2022-10-26T10:29:41;16.90;99.90
13375;DHT22;6756;51.354;15.754;2022-10-26T10:33:42;17.00;33.80
13375;DHT22;6756;51.354;15.754;2022-10-26T10:37:45;17.20;26.80
13375;DHT22;6756;51.354;15.754;2022-10-26T10:41:46;17.20;4.90
13375;DHT22;6756;51.354;15.754;2022-10-26T10:45:50;17.20;1.00
13375;DHT22;6756;51.354;15.754;2022-10-26T10:50:19;17.30;1.00
13375;DHT22;6756;51.354;15.754;2022-10-26T10:54:33;17.40;1.00
13375;DHT22;6756;51.354;15.754;2022-10-26T11:06:47;17.60;1.00
13375;DHT22;6756;51.354;15.754;2022-10-26T11:15:09;17.60;1.00
13375;DHT22;6756;51.354;15.754;2022-10-26T11:23:44;17.80;1.00
13375;DHT22;6756;51.354;15.754;2022-10-26T11:27:53;17.60;1.00
13375;DHT22;6756;51.354;15.754;2022-10-26T11:32:29;17.50;1.00
13375;DHT22;6756;51.354;15.754;2022-10-26T11:36:33;17.70;1.00
13375;DHT22;6756;51.354;15.754;2022-10-26T11:45:24;17.90;1.00
13375;DHT22;6756;51.354;15.754;2022-10-26T11:49:33;17.70;1.00
13375;DHT22;6756;51.354;15.754;2022-10-26T11:53:40;17.50;1.00
13375;DHT22;6756;51.354;15.754;2022-10-26T11:57:42;17.30;1.00
13375;DHT22;6756;51.354;15.754;2022-10-26T12:01:51;17.40;1.00
13375;DHT22;6756;51.354;15.754;2022-10-26T12:05:53;17.70;1.00
13375;DHT22;6756;51.354;15.754;2022-10-26T12:09:55;18.30;1.00
13375;DHT22;6756;51.354;15.754;2022-10-26T12:18:53;19.50;99.90
13375;DHT22;6756;51.354;15.754;2022-10-26T12:22:46;19.80;99.90
13375;DHT22;6756;51.354;15.754;2022-10-26T12:26:56;20.10;99.90
13375;DHT22;6756;51.354;15.754;2022-10-26T12:39:40;20.00;99.90
13375;DHT22;6756;51.354;15.754;2022-10-26T12:43:41;20.30;99.90
13375;DHT22;6756;51.354;15.754;2022-10-26T12:51:43;20.60;99.90
13375;DHT22;6756;51.354;15.754;2022-10-26T13:00:03;20.80;99.90
13375;DHT22;6756;51.354;15.754;2022-10-26T13:04:43;20.80;99.90
13375;DHT22;6756;51.354;15.754;2022-10-26T13:08:55;20.90;99.90
13375;DHT22;6756;51.354;15.754;2022-10-26T13:12:59;20.50;99.90
13375;DHT22;6756;51.354;15.754;2022-10-26T13:17:03;20.30;99.90
13375;DHT22;6756;51.354;15.754;2022-10-26T13:21:15;20.20;99.90
13375;DHT22;6756;51.354;15.754;2022-10-26T13:25:28;20.00;99.90
13375;DHT22;6756;51.354;15.754;2022-10-26T13:29:30;19.70;99.90
13375;DHT22;6756;51.354;15.754;2022-10-26T13:33:40;19.50;99.90
13375;DHT22;6756;51.354;15.754;2022-10-26T13:37:45;19.30;99.90
13375;DHT22;6756;51.354;15.754;2022-10-26T13:41:50;19.20;99.90
13375;DHT22;6756;51.354;15.754;2022-10-26T13:45:58;19.10;99.90
13375;DHT22;6756;51.354;15.754;2022-10-26T13:50:15;19.00;99.90
13375;DHT22;6756;51.354;15.754;2022-10-26T13:54:24;18.90;99.90
13375;DHT22;6756;51.354;15.754;2022-10-26T13:58:42;18.80;99.90
13375;DHT22;6756;51.354;15.754;2022-10-26T14:02:44;18.70;99.90
13375;DHT22;6756;51.354;15.754;2022-10-26T14:06:49;18.60;99.90
13375;DHT22;6756;51.354;15.754;2022-10-26T14:10:58;18.60;99.90
13375;DHT22;6756;51.354;15.754;2022-10-26T14:15:05;18.50;99.90
13375;DHT22;6756;51.354;15.754;2022-10-26T14:19:15;18.40;99.90
13375;DHT22;6756;51.354;15.754;2022-10-26T14:23:34;18.30;99.90
13375;DHT22;6756;51.354;15.754;2022-10-26T14:27:38;18.30;99.90
13375;DHT22;6756;51.354;15.754;2022-10-26T14:31:39;18.20;99.90
13375;DHT22;6756;51.354;15.754;2022-10-26T14:35:40;18.10;99.90
13375;DHT22;6756;51.354;15.754;2022-10-26T14:39:43;17.90;99.90
13375;DHT22;6756;51.354;15.754;2022-10-26T14:43:45;17.80;1.00
13375;DHT22;6756;51.354;15.754;2022-10-26T14:47:48;17.60;1.00
13375;DHT22;6756;51.354;15.754;2022-10-26T14:51:56;17.50;1.00
13375;DHT22;6756;51.354;15.754;2022-10-26T14:55:58;17.20;21.30
13375;DHT22;6756;51.354;15.754;2022-10-26T15:00:00;17.00;99.90
13375;DHT22;6756;51.354;15.754;2022-10-26T15:04:05;16.80;99.90
13375;DHT22;6756;51.354;15.754;2022-10-26T15:08:47;16.60;99.90
13375;DHT22;6756;51.354;15.754;2022-10-26T15:12:48;16.30;99.90
13375;DHT22;6756;51.354;15.754;2022-10-26T15:16:52;16.10;1.00
13375;DHT22;6756;51.354;15.754;2022-10-26T15:20:55;15.80;58.40
13375;DHT22;6756;51.354;15.754;2022-10-26T15:24:57;15.50;99.90
13375;DHT22;6756;51.354;15.754;2022-10-26T15:29:00;15.10;99.90
13375;DHT22;6756;51.354;15.754;2022-10-26T15:33:18;14.80;1.00
13375;DHT22;6756;51.354;15.754;2022-10-26T15:37:21;14.40;99.90
13375;DHT22;6756;51.354;15.754;2022-10-26T15:41:31;14.10;99.90
13375;DHT22;6756;51.354;15.754;2022-10-26T15:45:36;13.80;99.90
13375;DHT22;6756;51.354;15.754;2022-10-26T15:49:38;13.50;1.00
13375;DHT22;6756;51.354;15.754;2022-10-26T15:53:39;13.30;99.90
13375;DHT22;6756;51.354;15.754;2022-10-26T15:57:39;13.10;1.00
13375;DHT22;6756;51.354;15.754;2022-10-26T16:01:40;12.90;99.90
13375;DHT22;6756;51.354;15.754;2022-10-26T16:05:41;12.70;99.90
13375;DHT22;6756;51.354;15.754;2022-10-26T16:09:43;12.60;1.00
13375;DHT22;6756;51.354;15.754;2022-10-26T16:13:44;12.40;90.60
13375;DHT22;6756;51.354;15.754;2022-10-26T16:17:45;12.20;99.90
13375;DHT22;6756;51.354;15.754;2022-10-26T16:21:49;12.00;1.00
13375;DHT22;6756;51.354;15.754;2022-10-26T16:25:50;11.80;1.00
13375;DHT22;6756;51.354;15.754;2022-10-26T16:29:51;11.70;99.90
13375;DHT22;6756;51.354;15.754;2022-10-26T16:33:53;11.50;99.90
13375;DHT22;6756;51.354;15.754;2022-10-26T16:37:53;11.40;96.50
13375;DHT22;6756;51.354;15.754;2022-10-26T16:41:54;11.20;1.00
13375;DHT22;6756;51.354;15.754;2022-10-26T16:45:55;11.10;99.90
13375;DHT22;6756;51.354;15.754;2022-10-26T16:49:56;10.90;17.20
13375;DHT22;6756;51.354;15.754;2022-10-26T16:53:57;10.90;1.00
13375;DHT22;6756;51.354;15.754;2022-10-26T16:57:58;10.70;1.00
13375;DHT22;6756;51.354;15.754;2022-10-26T17:01:58;10.60;1.00
13375;DHT22;6756;51.354;15.754;2022-10-26T17:06:01;10.50;99.90
13375;DHT22;6756;51.354;15.754;2022-10-26T17:10:03;10.40;99.90
13375;DHT22;6756;51.354;15.754;2022-10-26T17:14:04;10.30;1.00
13375;DHT22;6756;51.354;15.754;2022-10-26T17:18:05;10.20;1.00
13375;DHT22;6756;51.354;15.754;2022-10-26T17:22:07;10.00;33.30
13375;DHT22;6756;51.354;15.754;2022-10-26T17:26:10;9.90;99.90
13375;DHT22;6756;51.354;15.754;2022-10-26T17:30:12;9.90;99.90
13375;DHT22;6756;51.354;15.754;2022-10-26T17:34:13;9.80;99.90
13375;DHT22;6756;51.354;15.754;2022-10-26T17:38:13;9.70;99.90
13375;DHT22;6756;51.354;15.754;2022-10-26T17:42:14;9.60;99.90
13375;DHT22;6756;51.354;15.754;2022-10-26T17:46:16;9.50;99.90
13375;DHT22;6756;51.354;15.754;2022-10-26T17:50:17;9.40;99.90
13375;DHT22;6756;51.354;15.754;2022-10-26T17:54:18;9.30;99.90
13375;DHT22;6756;51.354;15.754;2022-10-26T17:58:19;9.20;99.90
13375;DHT22;6756;51.354;15.754;2022-10-26T18:02:20;9.20;99.90
13375;DHT22;6756;51.354;15.754;2022-10-26T18:06:21;9.10;99.90
13375;DHT22;6756;51.354;15.754;2022-10-26T18:10:22;9.00;99.90
13375;DHT22;6756;51.354;15.754;2022-10-26T18:14:23;9.00;99.90
13375;DHT22;6756;51.354;15.754;2022-10-26T18:18:24;8.90;99.90
13375;DHT22;6756;51.354;15.754;2022-10-26T18:22:25;8.90;99.90
13375;DHT22;6756;51.354;15.754;2022-10-26T18:26:28;8.80;99.90
13375;DHT22;6756;51.354;15.754;2022-10-26T18:30:29;8.70;99.90
13375;DHT22;6756;51.354;15.754;2022-10-26T18:34:30;8.70;99.90
13375;DHT22;6756;51.354;15.754;2022-10-26T18:38:31;8.60;99.90
13375;DHT22;6756;51.354;15.754;2022-10-26T18:42:32;8.50;99.90
13375;DHT22;6756;51.354;15.754;2022-10-26T18:46:37;8.50;99.90
13375;DHT22;6756;51.354;15.754;2022-10-26T18:50:39;8.40;99.90
13375;DHT22;6756;51.354;15.754;2022-10-26T18:54:40;8.40;99.90
13375;DHT22;6756;51.354;15.754;2022-10-26T18:58:43;8.30;99.90
13375;DHT22;6756;51.354;15.754;2022-10-26T19:02:47;8.30;99.90
13375;DHT22;6756;51.354;15.754;2022-10-26T19:06:48;8.20;99.90
13375;DHT22;6756;51.354;15.754;2022-10-26T19:10:50;8.20;99.90
13375;DHT22;6756;51.354;15.754;2022-10-26T19:14:50;8.10;99.90
13375;DHT22;6756;51.354;15.754;2022-10-26T19:18:51;8.20;99.90
13375;DHT22;6756;51.354;15.754;2022-10-26T19:22:55;8.20;99.90
13375;DHT22;6756;51.354;15.754;2022-10-26T19:26:56;8.20;99.90
13375;DHT22;6756;51.354;15.754;2022-10-26T19:30:56;8.10;99.90
13375;DHT22;6756;51.354;15.754;2022-10-26T19:34:57;8.10;99.90
13375;DHT22;6756;51.354;15.754;2022-10-26T19:38:58;8.10;99.90
13375;DHT22;6756;51.354;15.754;2022-10-26T19:42:59;7.90;99.90
13375;DHT22;6756;51.354;15.754;2022-10-26T19:47:00;7.90;99.90
13375;DHT22;6756;51.354;15.754;2022-10-26T19:51:01;7.90;99.90
13375;DHT22;6756;51.354;15.754;2022-10-26T19:55:03;8.00;99.90
13375;DHT22;6756;51.354;15.754;2022-10-26T19:59:04;8.10;99.90
13375;DHT22;6756;51.354;15.754;2022-10-26T20:03:07;8.10;99.90
13375;DHT22;6756;51.354;15.754;2022-10-26T20:07:10;8.20;99.90
13375;DHT22;6756;51.354;15.754;2022-10-26T20:11:12;8.30;99.90
13375;DHT22;6756;51.354;15.754;2022-10-26T20:15:13;8.30;99.90
13375;DHT22;6756;51.354;15.754;2022-10-26T20:19:13;8.40;99.90
13375;DHT22;6756;51.354;15.754;2022-10-26T20:23:14;8.40;99.90
13375;DHT22;6756;51.354;15.754;2022-10-26T20:27:15;8.40;99.90
13375;DHT22;6756;51.354;15.754;2022-10-26T20:31:16;8.40;99.90
13375;DHT22;6756;51.354;15.754;2022-10-26T20:35:17;8.50;99.90
13375;DHT22;6756;51.354;15.754;2022-10-26T20:39:18;8.50;99.90
13375;DHT22;6756;51.354;15.754;2022-10-26T20:43:19;8.50;99.90
13375;DHT22;6756;51.354;15.754;2022-10-26T20:47:20;8.60;99.90
13375;DHT22;6756;51.354;15.754;2022-10-26T20:51:44;8.60;99.90
13375;DHT22;6756;51.354;15.754;2022-10-26T20:55:58;8.70;99.90
13375;DHT22;6756;51.354;15.754;2022-10-26T21:00:10;8.70;99.90
13375;DHT22;6756;51.354;15.754;2022-10-26T21:04:10;8.80;99.90
13375;DHT22;6756;51.354;15.754;2022-10-26T21:08:11;8.90;99.90
13375;DHT22;6756;51.354;15.754;2022-10-26T21:12:12;9.10;99.90
13375;DHT22;6756;51.354;15.754;2022-10-26T21:16:13;9.70;99.90
13375;DHT22;6756;51.354;15.754;2022-10-26T21:20:14;10.10;99.90
13375;DHT22;6756;51.354;15.754;2022-10-26T21:24:15;10.40;99.90
13375;DHT22;6756;51.354;15.754;2022-10-26T21:28:16;10.70;99.90
13375;DHT22;6756;51.354;15.754;2022-10-26T21:32:17;10.90;99.90
13375;DHT22;6756;51.354;15.754;2022-10-26T21:36:18;11.10;99.90
13375;DHT22;6756;51.354;15.754;2022-10-26T21:40:18;11.30;99.90
13375;DHT22;6756;51.354;15.754;2022-10-26T21:44:19;11.40;99.90
13375;DHT22;6756;51.354;15.754;2022-10-26T21:48:20;11.50;99.90
13375;DHT22;6756;51.354;15.754;2022-10-26T21:52:21;11.60;99.90
13375;DHT22;6756;51.354;15.754;2022-10-26T21:56:21;11.70;99.90
13375;DHT22;6756;51.354;15.754;2022-10-26T22:00:22;11.80;99.90
13375;DHT22;6756;51.354;15.754;2022-10-26T22:04:23;11.90;99.90
13375;DHT22;6756;51.354;15.754;2022-10-26T22:08:24;12.00;99.90
13375;DHT22;6756;51.354;15.754;2022-10-26T22:12:25;12.00;99.90
13375;DHT22;6756;51.354;15.754;2022-10-26T22:16:28;12.10;99.90
13375;DHT22;6756;51.354;15.754;2022-10-26T22:20:30;12.20;99.90
13375;DHT22;6756;51.354;15.754;2022-10-26T22:24:30;12.20;99.90
13375;DHT22;6756;51.354;15.754;2022-10-26T22:28:38;12.30;99.90
13375;DHT22;6756;51.354;15.754;2022-10-26T22:32:39;12.40;99.90
13375;DHT22;6756;51.354;15.754;2022-10-26T22:36:40;12.40;99.90
13375;DHT22;6756;51.354;15.754;2022-10-26T22:40:41;12.50;99.90
13375;DHT22;6756;51.354;15.754;2022-10-26T22:44:42;12.50;99.90
13375;DHT22;6756;51.354;15.754;2022-10-26T22:48:43;12.50;99.90
13375;DHT22;6756;51.354;15.754;2022-10-26T22:52:47;12.50;99.90
13375;DHT22;6756;51.354;15.754;2022-10-26T22:56:48;12.50;99.90
13375;DHT22;6756;51.354;15.754;2022-10-26T23:00:49;12.40;99.90
13375;DHT22;6756;51.354;15.754;2022-10-26T23:04:49;12.50;99.90
13375;DHT22;6756;51.354;15.754;2022-10-26T23:08:50;12.50;99.90
13375;DHT22;6756;51.354;15.754;2022-10-26T23:12:51;12.50;99.90
13375;DHT22;6756;51.354;15.754;2022-10-26T23:16:52;12.60;99.90
13375;DHT22;6756;51.354;15.754;2022-10-26T23:20:53;12.60;99.90
13375;DHT22;6756;51.354;15.754;2022-10-26T23:24:54;12.60;99.90
13375;DHT22;6756;51.354;15.754;2022-10-26T23:28:54;12.60;99.90
13375;DHT22;6756;51.354;15.754;2022-10-26T23:32:55;12.70;99.90
13375;DHT22;6756;51.354;15.754;2022-10-26T23:36:56;12.70;99.90
13375;DHT22;6756;51.354;15.754;2022-10-26T23:40:58;12.80;99.90
13375;DHT22;6756;51.354;15.754;2022-10-26T23:44:59;12.80;99.90
13375;DHT22;6756;51.354;15.754;2022-10-26T23:48:59;12.80;99.90
13375;DHT22;6756;51.354;15.754;2022-10-26T23:53:00;12.80;99.90
13375;DHT22;6756;51.354;15.754;2022-10-26T23:57:01;12.70;99.90
